Time;durP1;ratioP1;P1;durP2;ratioP2;P2;SDS_P1;SDS_P2;PMS_P1;PMS_P2;Temp;Humidity;BMP_temperature;BMP_pressure;BME280_temperature;BME280_humidity;BME280_pressure;Samples;Min_cycle;Max_cycle;Signal;HPM_P1;HPM_P2
2021/10/31 00:01:12;;;;;;;20.00;19.00;;;13.70;82.90;;;;;;5127623;27;20451;-70
2021/10/31 00:03:40;;;;;;;20.17;19.07;;;13.70;82.50;;;;;;5128514;27;20456;-70
2021/10/31 00:06:07;;;;;;;19.57;18.57;;;13.80;82.40;;;;;;5127236;27;20475;-71
2021/10/31 00:08:34;;;;;;;20.43;19.33;;;13.80;82.10;;;;;;5126342;27;20455;-71
2021/10/31 00:11:02;;;;;;;20.03;19.03;;;13.80;82.20;;;;;;5130246;27;20450;-71
2021/10/31 00:13:30;;;;;;;21.70;20.40;;;13.80;81.90;;;;;;5126240;27;20591;-71
2021/10/31 00:15:57;;;;;;;21.03;19.93;;;13.80;82.10;;;;;;5128367;27;20471;-70
2021/10/31 00:18:24;;;;;;;19.93;18.93;;;13.80;82.10;;;;;;5128148;27;20461;-70
2021/10/31 00:20:51;;;;;;;20.60;19.50;;;13.90;82.30;;;;;;5129118;27;20446;-71
2021/10/31 00:23:18;;;;;;;20.10;19.10;;;13.90;82.20;;;;;;5127152;27;20475;-70
2021/10/31 00:25:45;;;;;;;20.27;19.27;;;13.90;82.10;;;;;;5126811;27;20451;-71
2021/10/31 00:28:13;;;;;;;20.10;19.00;;;14.00;82.20;;;;;;5127248;27;20451;-70
2021/10/31 00:30:40;;;;;;;19.80;18.80;;;13.90;82.30;;;;;;5126660;27;20546;-71
2021/10/31 00:33:08;;;;;;;20.37;19.17;;;13.90;82.50;;;;;;5125198;27;20486;-73
2021/10/31 00:35:35;;;;;;;19.93;18.83;;;13.90;82.80;;;;;;5122734;27;20471;-75
2021/10/31 00:38:01;;;;;;;20.33;19.23;;;13.90;82.80;;;;;;5124725;27;20455;-73
2021/10/31 00:40:29;;;;;;;19.67;18.67;;;13.80;83.30;;;;;;5125409;27;20977;-73
2021/10/31 00:42:56;;;;;;;19.93;18.73;;;13.80;83.60;;;;;;5124846;27;20479;-72
2021/10/31 00:45:24;;;;;;;19.10;18.20;;;13.90;83.90;;;;;;5126108;27;20464;-72
2021/10/31 00:47:52;;;;;;;18.83;17.60;;;13.90;83.80;;;;;;5127105;27;20459;-73
2021/10/31 00:50:20;;;;;;;18.77;17.87;;;14.00;83.70;;;;;;5123484;27;20817;-74
2021/10/31 00:52:47;;;;;;;18.60;17.60;;;13.90;83.90;;;;;;5129504;27;20478;-73
2021/10/31 00:55:15;;;;;;;19.30;18.30;;;13.80;84.20;;;;;;5124817;27;20471;-75
2021/10/31 00:57:43;;;;;;;18.70;17.80;;;13.80;84.20;;;;;;5127925;27;20817;-73
2021/10/31 01:00:11;;;;;;;18.67;17.77;;;13.70;84.50;;;;;;5119340;27;20466;-72
2021/10/31 01:02:40;;;;;;;18.07;17.20;;;13.80;84.50;;;;;;5122518;27;22544;-73
2021/10/31 01:05:11;;;;;;;18.30;17.40;;;13.70;84.70;;;;;;5121755;27;20461;-73
2021/10/31 01:08:10;;;;;;;18.67;17.77;;;13.70;84.90;;;;;;5126043;27;20491;-72
2021/10/31 01:10:52;;;;;;;19.30;18.33;;;13.70;84.90;;;;;;5126733;27;20463;-73
2021/10/31 01:13:36;;;;;;;19.73;18.53;;;13.60;85.00;;;;;;5126362;27;20514;-73
2021/10/31 01:16:16;;;;;;;19.47;18.47;;;13.60;85.10;;;;;;5126311;27;20498;-73
2021/10/31 01:18:56;;;;;;;18.97;18.07;;;13.50;85.20;;;;;;5125432;27;20447;-72
2021/10/31 01:21:34;;;;;;;19.40;18.40;;;13.40;85.60;;;;;;5122817;27;20460;-73
2021/10/31 01:24:18;;;;;;;18.90;18.00;;;13.30;86.20;;;;;;5124319;27;20459;-73
2021/10/31 01:26:55;;;;;;;19.00;18.00;;;13.30;86.30;;;;;;5122633;27;20461;-72
2021/10/31 01:29:39;;;;;;;18.43;17.53;;;13.30;86.00;;;;;;5126262;27;20745;-73
2021/10/31 01:32:21;;;;;;;19.73;17.80;;;13.20;86.40;;;;;;5128400;27;20562;-70
2021/10/31 01:35:00;;;;;;;19.07;18.03;;;13.10;86.60;;;;;;5124639;27;20545;-70
2021/10/31 01:37:35;;;;;;;19.47;18.23;;;13.10;86.80;;;;;;5123946;27;20557;-72
2021/10/31 01:40:08;;;;;;;19.43;18.37;;;13.00;86.70;;;;;;5124929;27;20538;-73
2021/10/31 01:42:43;;;;;;;18.70;17.70;;;12.90;87.00;;;;;;5123264;27;20749;-73
2021/10/31 01:45:18;;;;;;;20.73;19.47;;;12.80;87.30;;;;;;5126128;27;20455;-72
2021/10/31 01:47:52;;;;;;;19.63;18.63;;;12.80;87.50;;;;;;5129861;27;20450;-73
2021/10/31 01:50:33;;;;;;;19.53;18.53;;;12.80;87.50;;;;;;5123836;27;20459;-73
2021/10/31 01:53:05;;;;;;;18.60;17.70;;;12.70;87.70;;;;;;5126009;27;20543;-73
2021/10/31 01:55:36;;;;;;;19.40;18.40;;;12.70;87.70;;;;;;5127294;27;20493;-72
2021/10/31 01:58:03;;;;;;;19.47;18.47;;;12.80;87.20;;;;;;5130506;27;20463;-72
2021/10/31 02:00:31;;;;;;;19.37;18.37;;;12.70;87.30;;;;;;5129629;27;20472;-72
2021/10/31 02:03:01;;;;;;;19.80;18.70;;;12.70;87.30;;;;;;5129229;27;20475;-72
2021/10/31 02:05:36;;;;;;;19.30;18.30;;;12.70;87.50;;;;;;5127067;27;20454;-75
2021/10/31 02:08:06;;;;;;;18.80;17.80;;;12.60;87.90;;;;;;5129551;27;20459;-73
2021/10/31 02:10:34;;;;;;;18.90;17.90;;;12.60;87.90;;;;;;5128282;27;20456;-73
2021/10/31 02:13:02;;;;;;;18.97;17.97;;;12.50;88.00;;;;;;5124100;27;20474;-72
2021/10/31 02:15:30;;;;;;;19.47;18.47;;;12.40;88.10;;;;;;5129048;27;20506;-74
2021/10/31 02:17:57;;;;;;;18.43;17.53;;;12.40;88.40;;;;;;5125805;27;20482;-72
2021/10/31 02:20:26;;;;;;;19.13;17.97;;;12.20;89.10;;;;;;5127087;27;20951;-72
2021/10/31 02:22:55;;;;;;;18.53;17.63;;;12.30;89.40;;;;;;5126403;27;20485;-73
2021/10/31 02:25:23;;;;;;;19.00;18.00;;;12.20;89.50;;;;;;5124822;27;20451;-73
2021/10/31 02:27:50;;;;;;;19.20;18.10;;;12.10;89.60;;;;;;5129327;27;20450;-72
2021/10/31 02:30:18;;;;;;;19.47;18.47;;;12.10;89.60;;;;;;5123523;27;20451;-74
2021/10/31 02:32:46;;;;;;;18.80;17.80;;;12.10;89.90;;;;;;5123050;27;20464;-72
2021/10/31 02:35:13;;;;;;;18.50;17.50;;;12.00;90.40;;;;;;5127534;27;20454;-75
2021/10/31 02:37:41;;;;;;;19.20;18.00;;;12.00;90.70;;;;;;5132022;27;20471;-72
2021/10/31 02:40:12;;;;;;;19.00;18.00;;;11.90;90.60;;;;;;5129366;27;20448;-72
2021/10/31 02:42:40;;;;;;;18.83;17.83;;;11.90;90.70;;;;;;5132471;27;20467;-73
2021/10/31 02:45:08;;;;;;;18.90;17.90;;;11.80;90.70;;;;;;5128690;27;20451;-73
2021/10/31 02:47:38;;;;;;;19.10;18.00;;;11.90;90.50;;;;;;5132182;27;20850;-75
2021/10/31 02:50:09;;;;;;;18.10;17.20;;;11.90;90.40;;;;;;5127408;27;20479;-72
2021/10/31 02:52:52;;;;;;;18.60;17.70;;;11.80;90.60;;;;;;5126950;27;20475;-73
2021/10/31 02:55:24;;;;;;;18.90;18.00;;;11.80;90.90;;;;;;5124841;27;20455;-75
2021/10/31 02:57:57;;;;;;;18.73;17.73;;;11.70;91.20;;;;;;5128745;27;20451;-73
2021/10/31 03:00:27;;;;;;;18.33;17.43;;;11.60;91.50;;;;;;5125642;27;20528;-72
2021/10/31 03:02:54;;;;;;;18.50;17.50;;;11.60;91.70;;;;;;5125597;27;20566;-73
2021/10/31 03:05:21;;;;;;;18.40;17.50;;;11.70;91.40;;;;;;5125779;27;20459;-73
2021/10/31 03:07:49;;;;;;;18.03;16.97;;;11.70;91.50;;;;;;5127573;27;21004;-72
2021/10/31 03:10:17;;;;;;;18.17;17.23;;;11.70;91.40;;;;;;5127655;27;20463;-75
2021/10/31 03:12:48;;;;;;;18.13;17.23;;;11.70;91.40;;;;;;5127414;27;20570;-72
2021/10/31 03:15:15;;;;;;;18.80;17.80;;;11.70;91.30;;;;;;5127170;27;20870;-74
2021/10/31 03:17:42;;;;;;;19.43;18.23;;;11.70;91.30;;;;;;5128960;27;20911;-73
2021/10/31 03:20:10;;;;;;;18.43;17.40;;;11.80;91.00;;;;;;5128589;27;20542;-74
2021/10/31 03:22:38;;;;;;;18.60;17.60;;;11.70;91.40;;;;;;5128198;27;20506;-73
2021/10/31 03:25:05;;;;;;;18.00;17.13;;;11.60;91.50;;;;;;5128379;27;20458;-74
2021/10/31 03:27:32;;;;;;;19.30;18.10;;;11.60;91.40;;;;;;5128162;27;20564;-73
2021/10/31 03:30:01;;;;;;;18.30;17.33;;;11.70;91.30;;;;;;5123656;27;20529;-73
2021/10/31 03:32:28;;;;;;;18.80;17.80;;;11.60;91.50;;;;;;5129219;27;20477;-74
2021/10/31 03:34:55;;;;;;;18.47;17.30;;;11.50;91.40;;;;;;5127282;27;20887;-70
2021/10/31 03:37:22;;;;;;;19.23;18.13;;;11.50;91.60;;;;;;5128786;27;20487;-71
2021/10/31 03:39:49;;;;;;;19.13;18.13;;;11.40;92.00;;;;;;5126574;27;21035;-71
2021/10/31 03:42:16;;;;;;;18.33;17.40;;;11.30;92.20;;;;;;5126287;27;20480;-70
2021/10/31 03:44:49;;;;;;;17.90;16.90;;;11.30;92.30;;;;;;5133250;27;20446;-71
2021/10/31 03:47:19;;;;;;;19.20;18.20;;;11.20;92.70;;;;;;5129448;27;20463;-70
2021/10/31 03:49:46;;;;;;;18.23;16.70;;;11.20;92.90;;;;;;5126169;27;21055;-70
2021/10/31 03:52:13;;;;;;;18.53;17.53;;;11.20;93.20;;;;;;5126323;27;20472;-70
2021/10/31 03:54:40;;;;;;;18.70;17.70;;;11.10;94.60;;;;;;5128162;27;20794;-71
2021/10/31 03:57:08;;;;;;;18.57;17.47;;;11.10;94.10;;;;;;5127087;27;20467;-70
2021/10/31 03:59:35;;;;;;;18.00;17.00;;;11.10;93.70;;;;;;5127555;27;20456;-70
2021/10/31 04:02:02;;;;;;;18.30;17.30;;;11.10;93.30;;;;;;5128551;27;20475;-70
2021/10/31 04:04:31;;;;;;;19.23;18.23;;;11.00;93.40;;;;;;5128988;27;20975;-70
2021/10/31 04:06:58;;;;;;;19.17;18.10;;;11.00;93.40;;;;;;5127705;27;20451;-73
2021/10/31 04:09:25;;;;;;;18.70;17.70;;;11.00;93.30;;;;;;5127804;27;20548;-71
2021/10/31 04:11:52;;;;;;;18.13;17.17;;;11.00;93.10;;;;;;5124801;27;20471;-75
2021/10/31 04:14:19;;;;;;;19.70;18.70;;;11.00;93.20;;;;;;5126705;27;20481;-70
2021/10/31 04:16:46;;;;;;;18.30;17.30;;;11.00;93.20;;;;;;5128378;27;20480;-71
2021/10/31 04:19:13;;;;;;;18.77;17.77;;;11.00;93.20;;;;;;5127080;27;20462;-71
2021/10/31 04:21:42;;;;;;;18.30;17.30;;;10.90;93.20;;;;;;5125492;27;20475;-71
2021/10/31 04:24:08;;;;;;;18.67;17.67;;;10.90;93.40;;;;;;5128623;27;20536;-71
2021/10/31 04:26:35;;;;;;;18.03;17.13;;;10.90;93.60;;;;;;5126312;27;20448;-70
2021/10/31 04:29:02;;;;;;;18.57;17.47;;;10.90;93.90;;;;;;5123575;27;20460;-70
2021/10/31 04:31:29;;;;;;;18.20;17.23;;;10.90;94.00;;;;;;5124066;27;20475;-70
2021/10/31 04:33:56;;;;;;;19.10;18.10;;;10.90;93.90;;;;;;5126472;27;20444;-71
2021/10/31 04:36:24;;;;;;;18.63;17.63;;;10.80;93.90;;;;;;5123986;27;20976;-71
2021/10/31 04:38:55;;;;;;;18.80;17.80;;;10.90;93.50;;;;;;5128445;27;20462;-71
2021/10/31 04:41:23;;;;;;;17.77;16.77;;;10.90;93.40;;;;;;5122794;27;20451;-71
2021/10/31 04:43:50;;;;;;;18.83;17.73;;;10.90;93.50;;;;;;5127318;27;21445;-71
2021/10/31 04:46:17;;;;;;;18.73;17.70;;;10.80;93.80;;;;;;5128505;27;20901;-70
2021/10/31 04:48:44;;;;;;;18.10;17.17;;;10.80;94.00;;;;;;5127532;27;20979;-70
2021/10/31 04:51:11;;;;;;;17.97;17.00;;;10.80;93.90;;;;;;5128910;27;20447;-73
2021/10/31 04:53:38;;;;;;;19.37;18.27;;;10.80;94.10;;;;;;5127337;27;20890;-73
2021/10/31 04:56:06;;;;;;;18.60;17.60;;;10.80;94.20;;;;;;5125561;27;20451;-72
2021/10/31 04:58:33;;;;;;;19.60;18.60;;;10.80;94.10;;;;;;5124408;27;20510;-73
2021/10/31 05:01:01;;;;;;;18.63;17.33;;;10.80;94.20;;;;;;5128376;27;21048;-73
2021/10/31 05:03:28;;;;;;;17.90;16.90;;;10.80;94.10;;;;;;5123410;27;20486;-72
2021/10/31 05:05:55;;;;;;;18.43;17.33;;;10.90;94.00;;;;;;5128724;27;20454;-72
2021/10/31 05:08:22;;;;;;;17.30;16.37;;;10.90;94.00;;;;;;5129079;27;20439;-72
2021/10/31 05:10:49;;;;;;;17.90;16.90;;;11.00;94.00;;;;;;5122212;27;20459;-73
2021/10/31 05:13:17;;;;;;;18.30;17.20;;;11.00;94.00;;;;;;5124413;27;20482;-72
2021/10/31 05:15:44;;;;;;;17.50;16.60;;;10.90;93.90;;;;;;5127287;27;20764;-72
2021/10/31 05:18:11;;;;;;;19.47;18.20;;;10.90;93.90;;;;;;5128120;27;20562;-72
2021/10/31 05:20:39;;;;;;;17.93;17.03;;;10.90;93.90;;;;;;5128239;27;20455;-73
2021/10/31 05:23:06;;;;;;;19.10;18.10;;;10.90;93.90;;;;;;5128017;27;21084;-70
2021/10/31 05:25:33;;;;;;;19.03;17.90;;;10.90;93.90;;;;;;5126737;27;20910;-71
2021/10/31 05:28:00;;;;;;;18.73;17.70;;;10.90;93.80;;;;;;5126644;27;20467;-71
2021/10/31 05:30:28;;;;;;;18.50;17.40;;;10.90;93.70;;;;;;5122951;27;20459;-70
2021/10/31 05:32:55;;;;;;;19.63;18.53;;;10.90;93.70;;;;;;5128780;27;20471;-71
2021/10/31 05:35:22;;;;;;;21.80;20.70;;;10.80;94.00;;;;;;5124582;27;20468;-70
2021/10/31 05:37:56;;;;;;;19.33;18.23;;;10.80;94.00;;;;;;5129636;27;20470;-71
2021/10/31 05:40:23;;;;;;;19.43;18.33;;;10.80;94.00;;;;;;5122862;27;20826;-70
2021/10/31 05:42:50;;;;;;;19.60;18.60;;;10.80;94.20;;;;;;5130102;27;20535;-72
2021/10/31 05:45:17;;;;;;;19.17;17.97;;;10.70;94.10;;;;;;5123217;27;20456;-74
2021/10/31 05:47:46;;;;;;;18.27;17.23;;;10.70;94.00;;;;;;5131327;27;20443;-72
2021/10/31 05:50:14;;;;;;;19.33;18.20;;;10.80;93.90;;;;;;5125890;27;20449;-72
2021/10/31 05:52:43;;;;;;;18.60;17.60;;;10.70;94.00;;;;;;5124808;27;20574;-74
2021/10/31 05:55:12;;;;;;;18.67;17.67;;;10.70;94.00;;;;;;5127965;27;20451;-72
2021/10/31 05:57:39;;;;;;;19.87;18.80;;;10.70;93.90;;;;;;5122658;27;20475;-72
2021/10/31 06:00:08;;;;;;;19.87;18.73;;;10.70;93.90;;;;;;5125681;27;20952;-72
2021/10/31 06:02:36;;;;;;;19.23;18.00;;;10.70;93.90;;;;;;5125596;27;20471;-74
2021/10/31 06:05:06;;;;;;;20.50;19.30;;;10.70;93.70;;;;;;5126037;28;20805;-72
2021/10/31 06:07:33;;;;;;;19.63;18.43;;;10.70;94.20;;;;;;5123943;27;20456;-72
2021/10/31 06:10:00;;;;;;;19.17;18.07;;;10.60;94.70;;;;;;5123055;27;20460;-72
2021/10/31 06:12:27;;;;;;;19.67;18.53;;;10.70;94.40;;;;;;5121662;27;20569;-72
2021/10/31 06:14:54;;;;;;;19.43;18.33;;;10.80;93.90;;;;;;5125239;27;20461;-70
2021/10/31 06:17:21;;;;;;;19.87;18.67;;;10.70;93.90;;;;;;5124869;28;20475;-70
2021/10/31 06:19:48;;;;;;;18.80;17.80;;;10.80;93.80;;;;;;5126567;27;20968;-72
2021/10/31 06:22:16;;;;;;;19.47;18.40;;;10.90;93.20;;;;;;5125381;27;20995;-72
2021/10/31 06:24:43;;;;;;;19.77;18.57;;;10.90;93.50;;;;;;5126135;28;20451;-72
2021/10/31 06:27:10;;;;;;;19.37;18.37;;;10.90;93.50;;;;;;5123970;27;20458;-72
2021/10/31 06:29:37;;;;;;;19.20;18.00;;;10.90;93.40;;;;;;5124021;27;20455;-72
2021/10/31 06:32:04;;;;;;;19.20;18.10;;;10.90;93.70;;;;;;5120074;27;20491;-72
2021/10/31 06:34:31;;;;;;;20.60;19.30;;;10.90;93.70;;;;;;5124180;27;20559;-72
2021/10/31 06:36:58;;;;;;;19.60;18.50;;;11.00;93.70;;;;;;5123162;27;20457;-72
2021/10/31 06:39:27;;;;;;;20.33;19.13;;;11.20;93.60;;;;;;5125410;27;20198;-73
2021/10/31 06:41:53;;;;;;;21.60;20.40;;;11.10;92.90;;;;;;5120865;27;20479;-72
2021/10/31 06:44:20;;;;;;;19.93;18.83;;;11.10;93.00;;;;;;5124403;27;20526;-71
2021/10/31 06:46:47;;;;;;;19.80;18.70;;;11.20;92.80;;;;;;5129065;27;20534;-69
2021/10/31 06:49:14;;;;;;;20.17;18.97;;;11.10;92.90;;;;;;5129913;27;20451;-70
2021/10/31 06:51:41;;;;;;;19.37;18.20;;;11.10;92.90;;;;;;5121688;27;20860;-70
2021/10/31 06:54:08;;;;;;;20.97;19.70;;;11.20;92.80;;;;;;5123394;27;20911;-69
2021/10/31 06:56:36;;;;;;;20.80;19.40;;;11.20;92.50;;;;;;5131512;27;20831;-70
2021/10/31 06:59:03;;;;;;;21.00;19.80;;;11.30;92.70;;;;;;5131954;27;21055;-71
2021/10/31 07:01:30;;;;;;;19.88;18.67;;;11.30;93.00;;;;;;5123386;27;20824;-70
2021/10/31 07:03:57;;;;;;;23.53;22.23;;;11.60;92.40;;;;;;5128052;27;20591;-69
2021/10/31 07:06:24;;;;;;;21.30;20.10;;;11.70;91.00;;;;;;5130196;27;20455;-69
2021/10/31 07:08:51;;;;;;;20.10;19.00;;;11.70;91.20;;;;;;5129469;27;20559;-69
2021/10/31 07:11:18;;;;;;;22.50;21.20;;;11.70;91.20;;;;;;5130538;27;20470;-69
2021/10/31 07:13:46;;;;;;;20.70;19.60;;;11.80;90.90;;;;;;5125645;27;22050;-70
2021/10/31 07:16:13;;;;;;;20.47;19.37;;;11.90;90.80;;;;;;5126076;27;22122;-70
2021/10/31 07:18:40;;;;;;;20.73;19.53;;;11.90;90.60;;;;;;5127257;27;20467;-68
2021/10/31 07:21:07;;;;;;;21.60;20.20;;;12.00;90.60;;;;;;5129331;27;20579;-71
2021/10/31 07:23:34;;;;;;;21.23;20.03;;;12.00;90.30;;;;;;5125209;27;20452;-72
2021/10/31 07:26:01;;;;;;;21.63;20.33;;;12.20;90.10;;;;;;5129928;27;20447;-72
2021/10/31 07:28:28;;;;;;;21.77;20.27;;;12.40;89.30;;;;;;5127083;27;20546;-71
2021/10/31 07:30:58;;;;;;;25.30;24.00;;;12.50;88.90;;;;;;5129479;27;20455;-71
2021/10/31 07:33:25;;;;;;;21.50;20.30;;;12.50;88.70;;;;;;5127471;27;20472;-71
2021/10/31 07:35:52;;;;;;;21.33;20.23;;;12.50;88.60;;;;;;5128479;27;20455;-71
2021/10/31 07:38:19;;;;;;;21.93;20.70;;;12.60;88.60;;;;;;5128212;27;20473;-72
2021/10/31 07:40:47;;;;;;;23.07;21.77;;;12.60;88.40;;;;;;5125274;27;20857;-71
2021/10/31 07:43:14;;;;;;;24.30;22.87;;;12.70;88.20;;;;;;5127199;27;20479;-70
2021/10/31 07:45:41;;;;;;;25.37;23.80;;;12.80;89.30;;;;;;5126846;27;21099;-71
2021/10/31 07:48:09;;;;;;;25.73;23.83;;;13.00;88.20;;;;;;5128985;27;20500;-70
2021/10/31 07:50:36;;;;;;;26.73;25.03;;;13.00;87.20;;;;;;5127862;27;20610;-70
2021/10/31 07:53:05;;;;;;;26.67;24.87;;;13.10;86.50;;;;;;5127484;27;21014;-70
2021/10/31 07:55:34;;;;;;;27.10;25.30;;;13.10;86.30;;;;;;5130183;27;20478;-71
2021/10/31 07:58:03;;;;;;;25.77;24.27;;;13.00;86.00;;;;;;5128693;27;20478;-71
2021/10/31 08:00:30;;;;;;;26.50;24.70;;;13.10;86.30;;;;;;5127818;27;20483;-73
2021/10/31 08:02:58;;;;;;;26.73;25.00;;;13.20;86.00;;;;;;5128642;27;22206;-73
2021/10/31 08:05:27;;;;;;;26.50;24.80;;;13.20;86.10;;;;;;5128678;27;20455;-74
2021/10/31 08:07:57;;;;;;;27.47;25.47;;;13.20;86.00;;;;;;5124862;27;20455;-71
2021/10/31 08:10:24;;;;;;;25.27;23.73;;;13.30;85.90;;;;;;5126617;27;20882;-69
2021/10/31 08:12:51;;;;;;;33.27;30.57;;;13.40;85.60;;;;;;5126930;27;20478;-69
2021/10/31 08:17:59;;;;;;;30.30;28.00;;;13.20;85.30;;;;;;5125598;27;21011;-70
2021/10/31 08:20:27;;;;;;;29.27;27.00;;;13.20;85.70;;;;;;5126931;27;20469;-69
2021/10/31 08:22:54;;;;;;;28.97;26.87;;;13.30;85.60;;;;;;5128024;27;20479;-70
2021/10/31 08:25:21;;;;;;;29.00;26.60;;;13.40;85.40;;;;;;5127299;27;20515;-69
2021/10/31 08:27:48;;;;;;;31.27;28.77;;;13.50;85.40;;;;;;5128201;27;20540;-69
2021/10/31 08:30:15;;;;;;;29.07;27.10;;;13.60;85.20;;;;;;5128271;27;20520;-68
2021/10/31 08:32:46;;;;;;;29.40;27.30;;;13.60;84.80;;;;;;5128194;27;20473;-68
2021/10/31 08:35:13;;;;;;;26.97;25.27;;;13.70;84.40;;;;;;5127912;27;20837;-69
2021/10/31 08:37:41;;;;;;;25.67;24.07;;;13.60;84.60;;;;;;5127909;27;20475;-69
2021/10/31 08:40:09;;;;;;;26.80;25.10;;;13.60;84.90;;;;;;5123834;27;20547;-69
2021/10/31 08:42:37;;;;;;;26.77;24.77;;;13.70;85.80;;;;;;5127797;27;20982;-69
2021/10/31 08:45:06;;;;;;;27.70;25.87;;;14.00;84.80;;;;;;5125524;27;20456;-69
2021/10/31 08:47:33;;;;;;;29.00;26.80;;;14.10;84.30;;;;;;5128178;27;20525;-69
2021/10/31 08:50:00;;;;;;;28.00;26.07;;;14.20;83.20;;;;;;5124503;27;20458;-69
2021/10/31 08:52:28;;;;;;;26.67;24.97;;;14.30;82.20;;;;;;5124661;27;20479;-69
2021/10/31 08:54:56;;;;;;;27.83;26.03;;;14.30;82.20;;;;;;5127380;27;20516;-69
2021/10/31 08:57:23;;;;;;;28.90;26.90;;;14.40;82.10;;;;;;5124674;27;20538;-68
2021/10/31 08:59:50;;;;;;;26.37;24.67;;;14.40;81.90;;;;;;5127773;27;20455;-68
2021/10/31 09:02:17;;;;;;;25.73;24.23;;;14.40;81.70;;;;;;5126296;27;20562;-68
2021/10/31 09:04:44;;;;;;;26.47;24.87;;;14.40;81.90;;;;;;5130215;27;20458;-68
2021/10/31 09:07:14;;;;;;;25.90;24.30;;;14.40;82.00;;;;;;5128003;27;20555;-68
2021/10/31 09:09:43;;;;;;;27.60;25.70;;;14.40;82.00;;;;;;5127891;27;20452;-69
2021/10/31 09:12:12;;;;;;;25.50;24.07;;;14.50;82.10;;;;;;5130864;27;21048;-69
2021/10/31 09:14:40;;;;;;;26.17;24.57;;;14.70;81.50;;;;;;5126037;27;20554;-69
2021/10/31 09:17:07;;;;;;;25.73;24.23;;;14.80;81.40;;;;;;5128104;27;20542;-71
2021/10/31 09:19:34;;;;;;;24.77;23.37;;;14.90;80.80;;;;;;5127551;27;20479;-74
2021/10/31 09:22:01;;;;;;;27.03;25.43;;;14.90;80.30;;;;;;5123150;27;21058;-69
2021/10/31 09:24:28;;;;;;;27.43;25.63;;;14.90;80.10;;;;;;5123308;27;21019;-69
2021/10/31 09:26:55;;;;;;;24.30;23.00;;;14.80;80.60;;;;;;5128122;27;20455;-69
2021/10/31 09:29:23;;;;;;;25.97;24.37;;;14.90;80.40;;;;;;5122127;27;21035;-70
2021/10/31 09:31:50;;;;;;;23.17;21.97;;;14.90;80.50;;;;;;5120949;27;20590;-69
2021/10/31 09:34:17;;;;;;;24.33;22.87;;;15.00;80.00;;;;;;5122102;27;20469;-69
2021/10/31 09:36:44;;;;;;;23.90;22.47;;;15.20;79.60;;;;;;5127259;27;20542;-69
2021/10/31 09:39:12;;;;;;;24.57;23.23;;;15.30;79.00;;;;;;5125253;27;20553;-69
2021/10/31 09:41:39;;;;;;;22.50;21.20;;;15.40;79.20;;;;;;5123100;27;20463;-69
2021/10/31 09:44:18;;;;;;;24.07;22.60;;;15.60;78.70;;;;;;5126894;27;20481;-69
2021/10/31 09:46:46;;;;;;;24.00;22.70;;;15.70;77.80;;;;;;5126636;27;20542;-69
2021/10/31 09:49:14;;;;;;;23.40;22.10;;;15.80;77.50;;;;;;5121074;27;20454;-69
2021/10/31 09:51:43;;;;;;;24.17;22.87;;;15.80;77.40;;;;;;5126841;27;20467;-69
2021/10/31 09:54:13;;;;;;;23.13;21.90;;;16.00;77.00;;;;;;5127056;28;20542;-69
2021/10/31 09:56:41;;;;;;;23.00;21.80;;;16.10;76.50;;;;;;5124829;28;20455;-69
2021/10/31 09:59:11;;;;;;;23.50;22.20;;;16.20;75.90;;;;;;5119641;28;21032;-69
2021/10/31 10:01:57;;;;;;;24.30;22.80;;;16.30;75.90;;;;;;5125363;27;20495;-69
2021/10/31 10:04:27;;;;;;;23.50;22.20;;;16.40;75.80;;;;;;5128105;27;20455;-69
2021/10/31 10:06:56;;;;;;;23.37;22.00;;;16.60;75.40;;;;;;5127625;27;20448;-71
2021/10/31 10:09:23;;;;;;;25.73;24.33;;;16.70;75.00;;;;;;5125885;27;20458;-71
2021/10/31 10:11:51;;;;;;;22.80;21.13;;;16.80;74.60;;;;;;5123463;27;20475;-72
2021/10/31 10:14:24;;;;;;;24.67;23.27;;;16.90;74.40;;;;;;5126600;28;20473;-73
2021/10/31 10:16:56;;;;;;;24.50;23.10;;;17.00;74.30;;;;;;5129463;27;20462;-72
2021/10/31 10:19:25;;;;;;;23.33;22.00;;;17.10;74.20;;;;;;5131292;27;20502;-71
2021/10/31 10:21:55;;;;;;;22.60;21.50;;;17.20;74.00;;;;;;5131894;27;20476;-72
2021/10/31 10:24:23;;;;;;;24.30;23.00;;;17.30;73.20;;;;;;5128281;27;20534;-74
2021/10/31 10:26:54;;;;;;;24.23;22.93;;;17.50;72.50;;;;;;5127442;27;20462;-71
2021/10/31 10:29:23;;;;;;;24.03;22.83;;;17.50;72.30;;;;;;5130676;27;20457;-71
2021/10/31 10:31:53;;;;;;;23.90;22.70;;;17.70;71.40;;;;;;5127356;27;20499;-71
2021/10/31 10:34:33;;;;;;;24.67;23.27;;;17.70;71.50;;;;;;5130881;27;20454;-73
2021/10/31 10:37:07;;;;;;;24.57;23.20;;;17.80;71.20;;;;;;5131513;27;20467;-72
2021/10/31 10:39:35;;;;;;;27.80;26.30;;;17.90;70.80;;;;;;5131993;27;20474;-71
2021/10/31 10:42:02;;;;;;;23.57;22.37;;;18.00;70.30;;;;;;5127784;27;20471;-71
2021/10/31 10:44:31;;;;;;;23.80;22.50;;;18.20;70.20;;;;;;5124536;27;20537;-73
2021/10/31 10:47:01;;;;;;;23.63;22.40;;;18.30;69.10;;;;;;5125131;27;20956;-72
2021/10/31 10:49:31;;;;;;;25.07;23.67;;;18.40;68.60;;;;;;5129735;27;20448;-72
2021/10/31 10:52:29;;;;;;;24.70;23.30;;;18.60;67.50;;;;;;5128540;27;20502;-71
2021/10/31 10:55:07;;;;;;;24.90;23.70;;;18.70;67.40;;;;;;5082863;27;20456;-68
2021/10/31 10:57:38;;;;;;;23.90;22.70;;;18.80;67.40;;;;;;5129567;27;21016;-71
2021/10/31 11:00:12;;;;;;;23.33;22.13;;;18.90;65.80;;;;;;5126599;27;20566;-71
2021/10/31 11:02:40;;;;;;;24.17;22.77;;;19.10;65.50;;;;;;5130205;27;20571;-70
2021/10/31 11:05:09;;;;;;;23.70;22.50;;;19.20;64.60;;;;;;5126205;27;20546;-70
2021/10/31 11:07:46;;;;;;;23.37;22.17;;;19.30;64.20;;;;;;5131089;27;20543;-72
2021/10/31 11:10:18;;;;;;;23.90;22.70;;;19.40;63.20;;;;;;5130774;27;20493;-71
2021/10/31 11:12:46;;;;;;;26.57;25.07;;;19.50;63.00;;;;;;5130290;27;20479;-71
2021/10/31 11:15:15;;;;;;;23.70;22.50;;;19.50;62.60;;;;;;5131052;27;20876;-71
2021/10/31 11:17:43;;;;;;;25.30;24.00;;;19.60;62.60;;;;;;5129210;27;20454;-71
2021/10/31 11:20:12;;;;;;;26.17;24.67;;;19.60;62.20;;;;;;5129711;27;20471;-71
2021/10/31 11:22:42;;;;;;;25.50;24.13;;;19.70;62.00;;;;;;5129619;27;21043;-71
2021/10/31 11:25:13;;;;;;;24.47;23.13;;;19.80;61.40;;;;;;5126133;27;20460;-71
2021/10/31 11:27:40;;;;;;;24.80;23.50;;;19.90;60.70;;;;;;5130387;27;20455;-72
2021/10/31 11:30:10;;;;;;;23.00;21.80;;;20.00;60.30;;;;;;5126214;27;20451;-71
2021/10/31 11:32:38;;;;;;;23.20;22.00;;;20.00;60.10;;;;;;5131017;27;20524;-71
2021/10/31 11:35:06;;;;;;;24.20;22.90;;;20.10;60.10;;;;;;5128056;27;20667;-71
2021/10/31 11:37:38;;;;;;;23.60;22.40;;;20.30;59.40;;;;;;5131459;27;20474;-71
2021/10/31 11:40:08;;;;;;;24.50;23.20;;;20.50;59.10;;;;;;5129649;27;20482;-71
2021/10/31 11:42:42;;;;;;;23.60;22.40;;;20.60;58.60;;;;;;5130605;27;20493;-74
2021/10/31 11:45:12;;;;;;;24.40;23.00;;;20.80;58.70;;;;;;5127359;27;20456;-71
2021/10/31 11:47:42;;;;;;;25.37;23.87;;;20.90;57.90;;;;;;5132370;27;20463;-71
2021/10/31 11:50:18;;;;;;;26.43;25.03;;;21.00;57.80;;;;;;5129973;27;20841;-71
2021/10/31 11:52:57;;;;;;;24.20;22.90;;;21.10;57.40;;;;;;5125095;27;20471;-71
2021/10/31 11:55:50;;;;;;;25.30;24.10;;;21.20;56.60;;;;;;5125259;27;20450;-71
2021/10/31 11:58:54;;;;;;;24.80;23.50;;;21.30;56.30;;;;;;5129313;27;20794;-72
2021/10/31 12:01:24;;;;;;;27.20;25.60;;;21.40;55.60;;;;;;5123169;27;20452;-72
2021/10/31 12:03:53;;;;;;;26.43;24.83;;;21.40;55.60;;;;;;5128043;27;20463;-72
2021/10/31 12:06:53;;;;;;;27.13;25.43;;;21.50;55.30;;;;;;5127111;27;20452;-71
2021/10/31 12:09:31;;;;;;;28.17;26.43;;;21.60;54.00;;;;;;5126358;27;20467;-71
2021/10/31 12:12:22;;;;;;;24.40;23.10;;;21.50;54.40;;;;;;5126355;27;20506;-71
2021/10/31 12:14:53;;;;;;;23.83;22.63;;;21.60;54.20;;;;;;5129310;27;20450;-71
2021/10/31 12:17:21;;;;;;;24.67;23.37;;;21.50;54.10;;;;;;5129244;27;20461;-71
2021/10/31 12:19:50;;;;;;;24.20;23.00;;;21.50;54.00;;;;;;5122172;27;20479;-72
2021/10/31 12:22:19;;;;;;;23.63;22.43;;;21.60;53.60;;;;;;5128460;27;20999;-71
2021/10/31 12:24:48;;;;;;;23.50;22.30;;;21.70;53.60;;;;;;5129260;27;20527;-69
2021/10/31 12:27:17;;;;;;;24.23;22.93;;;21.70;53.50;;;;;;5128048;27;20530;-69
2021/10/31 12:30:03;;;;;;;26.33;24.83;;;21.70;53.60;;;;;;5128864;27;21175;-69
2021/10/31 12:32:40;;;;;;;24.60;23.30;;;21.70;53.40;;;;;;5113415;27;20984;-69
2021/10/31 12:35:31;;;;;;;25.30;23.90;;;21.70;53.40;;;;;;5128280;27;20465;-69
2021/10/31 12:38:34;;;;;;;24.87;23.57;;;21.70;53.00;;;;;;5129302;27;20455;-69
2021/10/31 12:41:34;;;;;;;25.57;23.83;;;21.70;53.40;;;;;;5130046;27;20555;-69
2021/10/31 12:44:12;;;;;;;25.07;23.77;;;21.80;53.00;;;;;;5126652;27;20526;-69